Tiempo atmosférico en la estación meteorológica de La Riba de Escalote, Soria (1042 m.)



Fecha
DESCASC
Temp. máxima en grados centígrados (hora)
DESCASC
Temp. mínima en grados centígrados (hora)
DESCASC
Temp. media en grados centígrados
DESCASC
Racha de viento máxima en m/sg (hora)
DESCASC
Velocidad máxima media en intervalos de 10 minutos(hora)
DESCASC
Precipitaciones diarias en mm
DESCASC
Precipitaciones de 00:00 a 06:00 en mm
DESCASC
Precipitaciones de 06:00 a 12:00 en mm
DESCASC
Precipitaciones de 12:00 a 18:00 en mm
DESCASC
Precipitaciones de 18:00 a 24:00 en mm
DESCASC
22-01-2020 3.3 (16:30) 0.3 (00:30) 1.8 11.67 (10:50) 8.89 (10:50) 1.4 1.2 0.2 0 0
21-01-2020 2.2 (19:20) -2.1 (00:30) 0.1 16.11 (13:10) 12.5 (13:10) 5.4 0 0.2 2.2 3
20-01-2020 2.5 (16:20) -2.5 (07:00) 0 15.56 (11:20) 10.56 (10:20) 0 0 0 0 0
19-01-2020 4.7 (15:30) -1.3 (-00:0) 1.7 21.39 (22:30) 15.56 (11:50) 1.6 0.6 1 0 0
18-01-2020 5.7 (14:50) -1.7 (-00:0) 2 17.5 (16:00) 13.61 (15:50) 5.2 0 0 0 5.2
17-01-2020 8 (14:40) -0.4 (00:00) 3.8 15.28 (14:50) 11.39 (13:50) 0.4 0.2 0.2 0 0
16-01-2020 7.9 (13:40) 3.8 (00:00) 5.9 13.89 (05:00) 10.83 (04:30) 0 0 0 0 0
15-01-2020 6.8 (14:30) 1.6 (00:00) 4.2 17.22 (01:30) 13.33 (01:30) 0 0 0 0 0
14-01-2020 5.2 (16:40) -5.2 (-00:0) 0 14.17 (23:00) 11.11 (23:50) 0 0 0 0 0
13-01-2020 8.8 (14:10) -5.8 (-00:0) 1.5 13.61 (20:50) 11.67 (20:30) 0 0 0 0 0
12-01-2020 8.3 (15:10) -8 (05:00) 0.2 6.94 (14:10) 4.44 (14:10) 0 0 0 0 0
11-01-2020 8 (15:50) -5.9 (-00:0) 1 5.28 (14:50) 3.61 (14:50) 0 0 0 0 0
10-01-2020 7.8 (15:20) -1.2 (-00:0) 3.3 11.11 (00:40) 8.33 (00:40) 0 0 0 0 0
09-01-2020 12.3 (15:40) 2.1 (00:00) 7.2 13.06 (14:50) 9.44 (15:00) 0 0 0 0 0
08-01-2020 12.6 (15:50) -3.1 (-00:0) 4.8 5 (16:20) 3.61 (16:20) 0 0 0 0 0
07-01-2020 13.7 (15:30) -5.1 (-00:0) 4.3 5.28 (16:40) 3.61 (16:40) 0 0 0 0 0
06-01-2020 11.4 (14:30) -3.8 (-00:0) 3.8 4.72 (16:00) 3.61 (16:00) 0 0 0 0 0
05-01-2020 10 (15:50) -5.8 (-00:0) 2.1 2.78 (14:50) 1.94 (14:50) 0 0 0 0 0
04-01-2020 7.8 (16:30) -2.1 (-00:0) 2.9 4.17 (00:30) 3.06 (00:40) 0 0 0 0 0
03-01-2020 4.6 (01:00) -1 (-00:0) 1.8 8.33 (13:40) 6.39 (14:40) 0 0 0 0 0
02-01-2020 14.1 (14:50) -3.9 (-00:0) 5.1 6.11 (17:30) 5.56 (17:30) 0 0 0 0 0
01-01-2020 14.5 (15:00) -5.3 (-00:0) 4.6 5.56 (14:50) 3.89 (15:00) 0 0 0 0 0
31-12-2019 13.5 (15:10) -3 (-00:0) 5.3 3.61 (14:10) 2.78 (14:10) 0 0 0 0 0
30-12-2019 -- (--) -- (--) -- -- (--) -- (--) -- 0 0 0 --
29-12-2019 14.1 (14:40) -4.7 (-00:0) 4.7 2.78 (15:00) 2.22 (15:00) 0 0 0 0 0
28-12-2019 13.1 (14:10) -5.6 (-00:0) 3.8 4.44 (16:00) 2.78 (16:00) 0 0 0 0 0
27-12-2019 14.4 (15:40) -4.9 (-00:0) 4.7 3.61 (16:20) 3.06 (16:40) 0.2 0 0.2 0 0
26-12-2019 10.2 (15:00) -1.6 (-00:0) 4.3 10 (02:30) 6.94 (02:30) 0 0 0 0 0
25-12-2019 17.4 (14:50) 2 (00:00) 9.7 6.94 (13:20) 5.56 (13:20) 0 0 0 0 0
24-12-2019 14.5 (16:20) 3.5 (23:59) 9 6.39 (01:50) 4.17 (09:30) 0 0 0 0 0

Gráficas

Temp. máximas Temp. mínimas Temp. medias Precipitaciones Rachas de viento máximas Velocidades máximas media en intervalos de 10 minutos

Datos horarios

Fecha y hora oficial Temperatura (ºC) Velocidad del viento (km/h) Dirección del viento Racha (km/h) Dirección de racha Precipitación (mm) Presión (hPa) Tendencia (hPa) Humedad (%)
2020-01-22 23:00:00 1.8 4 Sudeste 18 Este 0 -- -- 99
2020-01-22 22:00:00 1.6 10 Este 24 Sudeste 0 -- -- 99
2020-01-22 21:00:00 1.6 20 Sudeste 27 Este 0 -- -- 99
2020-01-22 20:00:00 1.8 17 Sudeste 28 Este 0 -- -- 98
2020-01-22 19:00:00 2 24 Este 32 Este 0 -- -- 97
2020-01-22 18:00:00 2.8 23 Este 29 Este 0 -- -- 95
2020-01-22 17:00:00 3.1 19 Este 26 Este 0 -- -- 96
2020-01-22 16:00:00 3.2 13 Este 24 Este 0 -- -- 96
2020-01-22 15:00:00 2.9 21 Este 26 Este 0 -- -- 98
2020-01-22 14:00:00 2.6 13 Este 28 Este 0 -- -- 100
2020-01-22 13:00:00 2.3 16 Sudeste 28 Sudeste 0 -- -- 100
2020-01-22 12:00:00 2 22 Este 40 Este 0 -- -- 100
2020-01-22 11:00:00 1.8 30 Este 42 Sudeste 0 -- -- 100
2020-01-22 10:00:00 1.6 22 Este 32 Este 0 -- -- 100
2020-01-22 09:00:00 1.4 15 Sudeste 22 Este 0.2 -- -- 100
2020-01-22 08:00:00 0.9 12 Este 16 Este 0 -- -- 100
2020-01-22 07:00:00 0.9 8 Sudeste 23 Este 0 -- -- 99
2020-01-22 06:00:00 0.7 12 Este 24 Este 0.2 -- -- 99
2020-01-22 05:00:00 0.3 3 Nordeste 17 Este 0.2 -- -- 99
2020-01-22 04:00:00 0.5 14 Este 25 Este 0.2 -- -- 98
2020-01-22 03:00:00 0.6 15 Este 26 Este 0.4 -- -- 99
2020-01-22 02:00:00 0.4 10 Nordeste 17 Nordeste 0.2 -- -- 99
2020-01-22 01:00:00 0.3 3 Este 15 Este 0 -- -- 99
2020-01-22 00:00:00 0.6 13 Este 25 Este 0.4 -- -- 98
2020-01-21 23:00:00 0.8 13 Este 22 Este 0.6 -- -- 98
2020-01-21 22:00:00 1.6 15 Este 30 Este 0.2 -- -- 98
2020-01-21 21:00:00 1.4 26 Este 44 Nordeste 0.6 -- -- 97
2020-01-21 20:00:00 1.7 32 Este 47 Este 0.4 -- -- 96
2020-01-21 19:00:00 1.7 24 Este 44 Este 0.8 -- -- 97
2020-01-21 18:00:00 1 28 Este 47 Este 0.8 -- -- 97
2020-01-21 17:00:00 1.3 29 Este 44 Nordeste 1 -- -- 96
2020-01-21 16:00:00 1.5 24 Nordeste 46 Este 0.2 -- -- 96
2020-01-21 15:00:00 0.5 30 Este 44 Este 0.2 -- -- 97
2020-01-21 14:00:00 1 19 Nordeste 58 Nordeste 0 -- -- 96
2020-01-21 13:00:00 0.9 39 Este 55 Este 0 -- -- 95
2020-01-21 12:00:00 1.5 34 Este 46 Este 0 -- -- 95
2020-01-21 11:00:00 0.8 24 Nordeste 38 Nordeste 0.2 -- -- 98
2020-01-21 10:00:00 0 17 Nordeste 38 Nordeste 0 -- -- 96
2020-01-21 09:00:00 0.3 19 Nordeste 34 Nordeste 0 -- -- 94
2020-01-21 08:00:00 1.4 22 Nordeste 32 Este 0 -- -- 85
2020-01-21 07:00:00 1 6 Norte 15 Norte 0 -- -- 86
2020-01-21 06:00:00 0.5 6 Norte 21 Nordeste 0 -- -- 86
2020-01-21 05:00:00 0.2 11 Nordeste 18 Nordeste 0 -- -- 83
2020-01-21 04:00:00 -0.1 8 Nordeste 25 Nordeste 0 -- -- 78
2020-01-21 03:00:00 -1.5 4 Norte 16 Nordeste 0 -- -- 76
2020-01-21 02:00:00 -1.6 10 Nordeste 27 Nordeste 0 -- -- 75
2020-01-21 01:00:00 -2 7 Nordeste 29 Nordeste 0 -- -- 76
2020-01-21 00:00:00 -1.9 24 Nordeste 35 Nordeste 0 -- -- 75
2020-01-20 23:00:00 -1.8 18 Nordeste 35 Nordeste 0 -- -- 76
2020-01-20 22:00:00 -0.4 4 Nordeste 21 Nordeste 0 -- -- 70
2020-01-20 21:00:00 -0.2 14 Nordeste 36 Nordeste 0 -- -- 65
2020-01-20 20:00:00 -0.3 19 Nordeste 36 Este 0 -- -- 64
2020-01-20 19:00:00 0.4 22 Nordeste 36 Nordeste 0 -- -- 58
2020-01-20 18:00:00 1.5 23 Este 41 Este 0 -- -- 53
2020-01-20 17:00:00 2.1 20 Este 37 Este 0 -- -- 52
2020-01-20 16:00:00 2.3 20 Nordeste 37 Nordeste 0 -- -- 50
2020-01-20 15:00:00 2.2 18 Nordeste 39 Nordeste 0 -- -- 48
2020-01-20 14:00:00 2.1 25 Nordeste 40 Nordeste 0 -- -- 45
2020-01-20 13:00:00 1.3 25 Nordeste 47 Nordeste 0 -- -- 45
2020-01-20 12:00:00 0.2 30 Nordeste 56 Este 0 -- -- 48
2020-01-20 11:00:00 -0.1 32 Nordeste 55 Nordeste 0 -- -- 48
2020-01-20 10:00:00 -0.8 29 Nordeste 45 Este 0 -- -- 49
2020-01-20 09:00:00 -2.3 27 Nordeste 40 Nordeste 0 -- -- 53
2020-01-20 08:00:00 -2.4 30 Nordeste 42 Nordeste 0 -- -- 54
2020-01-20 07:00:00 -2.5 22 Nordeste 48 Nordeste 0 -- -- 55
2020-01-20 06:00:00 -2.1 30 Nordeste 49 Nordeste 0 -- -- 52
2020-01-20 05:00:00 -1.5 29 Nordeste 48 Nordeste 0 -- -- 47
2020-01-20 04:00:00 -1.6 24 Nordeste 46 Nordeste 0 -- -- 49
2020-01-20 03:00:00 -1.8 24 Nordeste 53 Nordeste 0 -- -- 54
2020-01-20 02:00:00 -1.9 28 Nordeste 43 Nordeste 0 -- -- 56
2020-01-20 01:00:00 -1.6 24 Nordeste 49 Nordeste 0 -- -- 55
2020-01-20 00:00:00 -1.2 32 Nordeste 68 Nordeste 0 -- -- 54
2020-01-19 23:00:00 -0.9 39 Nordeste 77 Nordeste 0 -- -- 54
2020-01-19 22:00:00 -0.5 43 Nordeste 60 Nordeste 0 -- -- 51
2020-01-19 21:00:00 -0.7 19 Nordeste 48 Norte 0 -- -- 56
2020-01-19 20:00:00 -0.3 30 Norte 50 Norte 0 -- -- 55
2020-01-19 19:00:00 0.4 27 Nordeste 63 Nordeste 0 -- -- 50
2020-01-19 18:00:00 1.8 49 Nordeste 74 Nordeste 0 -- -- 43
2020-01-19 17:00:00 2.9 51 Nordeste 71 Nordeste 0 -- -- 42
2020-01-19 16:00:00 4.1 48 Nordeste 75 Nordeste 0 -- -- 41
2020-01-19 15:00:00 4.2 36 Nordeste 62 Norte 0 -- -- 45
2020-01-19 14:00:00 3.6 41 Nordeste 64 Nordeste 0 -- -- 48
2020-01-19 13:00:00 3 39 Nordeste 72 Nordeste 0 -- -- 53
2020-01-19 12:00:00 2.9 52 Nordeste 75 Nordeste 0 -- -- 59
2020-01-19 11:00:00 2.5 34 Nordeste 66 Norte 0.2 -- -- 72
2020-01-19 10:00:00 2.3 21 Norte 46 Nordeste 0 -- -- 90
2020-01-19 09:00:00 1.8 11 Norte 33 Noroeste 0.2 -- -- 98
2020-01-19 08:00:00 1.8 21 Noroeste 33 Noroeste 0.4 -- -- 98
2020-01-19 07:00:00 2 22 Noroeste 36 Noroeste 0.2 -- -- 97
2020-01-19 06:00:00 2 24 Noroeste 39 Oeste 0.6 -- -- 96
2020-01-19 05:00:00 1.8 20 Noroeste 34 Noroeste 0 -- -- 95
2020-01-19 04:00:00 1.4 21 Noroeste 32 Oeste 0 -- -- 95
2020-01-19 03:00:00 1.6 12 Noroeste 37 Noroeste 0 -- -- 95
2020-01-19 02:00:00 2.2 22 Noroeste 36 Noroeste 0 -- -- 93
2020-01-19 01:00:00 2.6 11 Noroeste 18 Noroeste 0 -- -- 92
2020-01-19 00:00:00 3.5 15 Noroeste 40 Noroeste 0 -- -- 93
2020-01-18 23:00:00 3.6 29 Noroeste 39 Oeste 0.4 -- -- 94
2020-01-18 22:00:00 4 19 Noroeste 26 Noroeste 0.2 -- -- 95
2020-01-18 21:00:00 1.8 14 Oeste 53 Noroeste 4.6 -- -- 98
2020-01-18 20:00:00 5.2 41 Sudoeste 54 Sudoeste 0 -- -- 93
2020-01-18 19:00:00 5.5 39 Sudoeste 48 Sudoeste 0 -- -- 91
2020-01-18 18:00:00 5.3 37 Sudoeste 50 Sudoeste 0 -- -- 93
2020-01-18 17:00:00 5.6 41 Sudoeste 60 Sudoeste 0 -- -- 91
2020-01-18 16:00:00 5.3 47 Sudoeste 63 Sudoeste 0 -- -- 90
2020-01-18 15:00:00 5.5 43 Sudoeste 61 Sudoeste 0 -- -- 87
2020-01-18 14:00:00 5.6 44 Sudoeste 62 Sudoeste 0 -- -- 85
2020-01-18 13:00:00 5.1 41 Sudoeste 54 Sudoeste 0 -- -- 88
2020-01-18 12:00:00 4.6 31 Sudoeste 53 Sudoeste 0 -- -- 90
2020-01-18 11:00:00 4 38 Sudoeste 50 Sudoeste 0 -- -- 94
2020-01-18 10:00:00 3.2 13 Sur 31 Sudoeste 0 -- -- 96
2020-01-18 09:00:00 2.7 27 Sudoeste 37 Sudoeste 0 -- -- 93
2020-01-18 08:00:00 1.5 7 Este 13 Nordeste 0 -- -- 94
2020-01-18 07:00:00 1.1 4 Este 10 Sur 0 -- -- 91
2020-01-18 06:00:00 0.8 2 Nordeste 14 Sudeste 0 -- -- 92
2020-01-18 05:00:00 0 3 Sudeste 11 Sudoeste 0 -- -- 93
2020-01-18 04:00:00 -0.7 4 Sudoeste 6 Este 0 -- -- 96
2020-01-18 03:00:00 -1.4 3 Este 9 Sur 0 -- -- 94
2020-01-18 02:00:00 -1.7 5 Sudeste 11 Sudeste 0 -- -- 94
2020-01-18 01:00:00 -1.2 0 Calma 5 Sudeste 0 -- -- 92
2020-01-18 00:00:00 -0.3 0 Calma 5 Sudeste 0 -- -- 91
2020-01-17 23:00:00 -0.1 3 Sudeste 11 Oeste 0 -- -- 89
2020-01-17 22:00:00 0.5 5 Oeste 10 Oeste 0 -- -- 88
2020-01-17 21:00:00 1.9 4 Oeste 6 Oeste 0 -- -- 83
2020-01-17 20:00:00 2.5 0 Calma 6 Oeste 0 -- -- 80
2020-01-17 19:00:00 4.1 5 Oeste 21 Oeste 0 -- -- 74
2020-01-17 18:00:00 5.6 11 Noroeste 38 Noroeste 0 -- -- 71
2020-01-17 17:00:00 6.7 29 Oeste 46 Oeste 0 -- -- 66
2020-01-17 16:00:00 6.9 32 Noroeste 46 Noroeste 0 -- -- 63
2020-01-17 15:00:00 7.7 37 Oeste 55 Oeste 0 -- -- 61
2020-01-17 14:00:00 7.9 35 Oeste 54 Oeste 0 -- -- 66
2020-01-17 13:00:00 6.9 37 Oeste 53 Oeste 0 -- -- 79
2020-01-17 12:00:00 5.1 27 Oeste 47 Oeste 0.2 -- -- 89
2020-01-17 11:00:00 5.7 35 Oeste 49 Oeste 0 -- -- 83
2020-01-17 10:00:00 4.5 12 Oeste 27 Sudoeste 0 -- -- 90
2020-01-17 09:00:00 3.5 19 Sudoeste 36 Sudoeste 0 -- -- 93
2020-01-17 08:00:00 3.6 29 Sudoeste 35 Sudoeste 0 -- -- 91
2020-01-17 07:00:00 3.6 24 Sudoeste 30 Sudoeste 0 -- -- 89
2020-01-17 06:00:00 3.6 20 Sudoeste 37 Sudoeste 0 -- -- 89
2020-01-17 05:00:00 3.9 22 Sudoeste 40 Sudoeste 0 -- -- 88
2020-01-17 04:00:00 4.1 30 Sudoeste 36 Sudoeste 0 -- -- 88
2020-01-17 03:00:00 4.7 19 Sur 29 Sudoeste 0 -- -- 86
2020-01-17 02:00:00 5.4 8 Sur 33 Sudoeste 0 -- -- 85
2020-01-17 01:00:00 6.7 22 Sudoeste 35 Sudoeste 0.2 -- -- 81
2020-01-17 00:00:00 6.9 22 Sudoeste 41 Oeste 0 -- -- 83
2020-01-16 23:00:00 6.8 22 Sudoeste 37 Sudoeste 0 -- -- 87
2020-01-16 22:00:00 6.6 21 Sudoeste 28 Sudoeste 0 -- -- 89
2020-01-16 21:00:00 5.3 10 Sur 17 Sur 0 -- -- 91
2020-01-16 20:00:00 5.9 9 Sudoeste 25 Sudoeste 0 -- -- 89
2020-01-16 19:00:00 6.1 6 Sudoeste 43 Sudoeste 0 -- -- 85
2020-01-16 18:00:00 6.6 30 Sudoeste 41 Sudoeste 0 -- -- 80
2020-01-16 17:00:00 7.7 24 Sudoeste 41 Sudoeste 0 -- -- 83
2020-01-16 16:00:00 7.5 25 Sudoeste 42 Sudoeste 0 -- -- 91
2020-01-16 15:00:00 6.9 25 Sudoeste 36 Sudoeste 0 -- -- 94
2020-01-16 14:00:00 7.6 30 Sudoeste 44 Sudoeste 0 -- -- 91
2020-01-16 13:00:00 7 23 Sudoeste 41 Sudoeste 0 -- -- 94
2020-01-16 12:00:00 6.6 23 Sudoeste 36 Sudoeste 0 -- -- 96
2020-01-16 11:00:00 6.3 23 Sudoeste 35 Sudoeste 0 -- -- 98
2020-01-16 10:00:00 5.7 13 Sur 31 Sur 0 -- -- 98
2020-01-16 09:00:00 5.3 19 Sur 32 Sur 0 -- -- 98
2020-01-16 08:00:00 5.3 10 Sur 29 Sur 0 -- -- 97
2020-01-16 07:00:00 5.2 29 Sur 46 Sudoeste 0 -- -- 95
2020-01-16 06:00:00 5.7 37 Sudoeste 46 Sudoeste 0 -- -- 95
2020-01-16 05:00:00 5.4 39 Sudoeste 50 Sudoeste 0 -- -- 93
2020-01-16 04:00:00 4.9 37 Sudoeste 49 Sudoeste 0 -- -- 95
2020-01-16 03:00:00 4 13 Sudoeste 26 Sudoeste 0 -- -- 96
2020-01-16 02:00:00 4.1 14 Este 24 Este 0 -- -- 96
2020-01-16 01:00:00 4 8 Sudeste 29 Sudoeste 0 -- -- 95
2020-01-16 00:00:00 4.4 11 Sur 32 Sudoeste 0 -- -- 94
2020-01-15 23:00:00 4.3 17 Sudoeste 41 Sudoeste 0 -- -- 95
2020-01-15 22:00:00 4.5 35 Sudoeste 47 Sudoeste 0 -- -- 94
2020-01-15 21:00:00 4.3 28 Sudoeste 40 Sur 0 -- -- 93
2020-01-15 20:00:00 4.6 31 Sur 42 Sudoeste 0 -- -- 91
2020-01-15 19:00:00 4.7 32 Sudoeste 41 Sudoeste 0 -- -- 89
2020-01-15 18:00:00 4.7 33 Sudoeste 47 Sudoeste 0 -- -- 87
2020-01-15 17:00:00 5.5 32 Sudoeste 48 Sudoeste 0 -- -- 85
2020-01-15 16:00:00 5.8 35 Sudoeste 52 Sudoeste 0 -- -- 83
2020-01-15 15:00:00 6.3 39 Sudoeste 55 Sudoeste 0 -- -- 80
2020-01-15 14:00:00 6.5 41 Sudoeste 53 Sudoeste 0 -- -- 80
2020-01-15 13:00:00 6.1 42 Sudoeste 58 Sudoeste 0 -- -- 82
2020-01-15 12:00:00 4.8 42 Sudoeste 55 Sur 0 -- -- 87
2020-01-15 11:00:00 4.6 38 Sudoeste 53 Sudoeste 0 -- -- 87
2020-01-15 10:00:00 3.7 24 Sur 40 Sur 0 -- -- 91
2020-01-15 09:00:00 2.8 20 Sur 45 Sudoeste 0 -- -- 92
2020-01-15 08:00:00 3 32 Sudoeste 45 Sudoeste 0 -- -- 91
2020-01-15 07:00:00 2.6 33 Sudoeste 53 Sudoeste 0 -- -- 93
2020-01-15 06:00:00 2.9 34 Sudoeste 51 Sudoeste 0 -- -- 93
2020-01-15 05:00:00 3 32 Sudoeste 50 Sudoeste 0 -- -- 94
2020-01-15 04:00:00 2.6 29 Sudoeste 52 Sudoeste 0 -- -- 92
2020-01-15 03:00:00 2.5 38 Sudoeste 56 Sudoeste 0 -- -- 90
2020-01-15 02:00:00 2.6 41 Sudoeste 62 Sudoeste 0 -- -- 89
2020-01-15 01:00:00 2 45 Sudoeste 58 Sudoeste 0 -- -- 87
2020-01-15 00:00:00 1.9 39 Sudoeste 48 Sudoeste 0 -- -- 86
2020-01-14 23:00:00 1.6 40 Sudoeste 51 Sudoeste 0 -- -- 85
2020-01-14 22:00:00 1.2 36 Sudoeste 47 Sudoeste 0 -- -- 86
2020-01-14 21:00:00 1.5 35 Sudoeste 41 Sudoeste 0 -- -- 84
2020-01-14 20:00:00 1.8 28 Sudoeste 33 Sudoeste 0 -- -- 82
2020-01-14 19:00:00 1.7 30 Sudoeste 32 Sudoeste 0 -- -- 83
2020-01-14 18:00:00 3 23 Sudoeste 27 Sudoeste 0 -- -- 74
2020-01-14 17:00:00 4.8 19 Sudoeste 23 Sudoeste 0 -- -- 68
2020-01-14 16:00:00 4.9 18 Sudoeste 24 Sudoeste 0 -- -- 70
2020-01-14 15:00:00 3.5 15 Sudoeste 26 Sur 0 -- -- 78
2020-01-14 14:00:00 1.4 13 Sur 17 Sur 0 -- -- 93
2020-01-14 13:00:00 -0.4 4 Sudoeste 11 Oeste 0 -- -- 96
2020-01-14 12:00:00 -1.1 6 Sudoeste 12 Oeste 0 -- -- 97
2020-01-14 11:00:00 -1.3 8 Oeste 13 Oeste 0 -- -- 97
2020-01-14 10:00:00 -2.6 4 Oeste 9 Sudoeste 0 -- -- 98
2020-01-14 09:00:00 -4.1 0 Calma 4 Sur 0 -- -- 96
2020-01-14 08:00:00 -5.1 0 Calma 3 Este 0 -- -- 94
2020-01-14 07:00:00 -4.8 2 Sudeste 4 Sudeste 0 -- -- 94
2020-01-14 06:00:00 -4 0 Calma 4 Sudeste 0 -- -- 94
2020-01-14 05:00:00 -3.5 2 Oeste 4 Noroeste 0 -- -- 93
2020-01-14 04:00:00 -2.3 0 Calma 9 Sur 0 -- -- 91
2020-01-14 03:00:00 -1.9 6 Sudeste 9 Sudeste 0 -- -- 91
2020-01-14 02:00:00 -0.6 0 Calma 13 Sudoeste 0 -- -- 84
2020-01-14 01:00:00 0.8 8 Oeste 15 Oeste 0 -- -- 83
2020-01-14 00:00:00 0.5 3 Este 19 Oeste 0 -- -- 84
2020-01-13 23:00:00 0.4 4 Nordeste 21 Sudoeste 0 -- -- 82
2020-01-13 22:00:00 1.3 5 Este 47 Sudoeste 0 -- -- 78
2020-01-13 21:00:00 2.4 39 Sudoeste 49 Sudoeste 0 -- -- 74
2020-01-13 20:00:00 2 29 Sudoeste 37 Sudoeste 0 -- -- 79
2020-01-13 19:00:00 2.5 24 Sudoeste 28 Sudoeste 0 -- -- 76
2020-01-13 18:00:00 4.7 8 Sudoeste 10 Sudoeste 0 -- -- 65
2020-01-13 17:00:00 6.9 3 Noroeste 23 Oeste 0 -- -- 53
2020-01-13 16:00:00 8.4 13 Noroeste 18 Noroeste 0 -- -- 44
2020-01-13 15:00:00 8.3 5 Noroeste 20 Norte 0 -- -- 45
2020-01-13 14:00:00 8.7 9 Sudoeste 22 Sur 0 -- -- 51
2020-01-13 13:00:00 6.8 17 Sur 24 Sur 0 -- -- 58
2020-01-13 12:00:00 5.1 16 Sudoeste 23 Sudoeste 0 -- -- 63
2020-01-13 11:00:00 3.4 12 Sudoeste 20 Sur 0 -- -- 73
2020-01-13 10:00:00 0 2 Sudeste 13 Sudeste 0 -- -- 85
2020-01-13 09:00:00 -1.6 4 Sudeste 13 Sur 0 -- -- 86
2020-01-13 08:00:00 -4.4 3 Sudeste 6 Sudeste 0 -- -- 91
2020-01-13 07:00:00 -5.2 2 Este 5 Este 0 -- -- 92
2020-01-13 06:00:00 -5.4 0 Calma 6 Sudeste 0 -- -- 92
2020-01-13 05:00:00 -5.6 0 Calma 4 Sudeste 0 -- -- 93
2020-01-13 04:00:00 -5.5 3 Sudeste 4 Sudeste 0 -- -- 92
2020-01-13 03:00:00 -5.1 2 Sudeste 5 Sudeste 0 -- -- 91
2020-01-13 02:00:00 -5.1 0 Calma 8 Sudeste 0 -- -- 92
2020-01-13 01:00:00 -4.5 3 Oeste 5 Oeste 0 -- -- 91
2020-01-13 00:00:00 -3.6 0 Calma 3 Sudeste 0 -- -- 88
2020-01-12 23:00:00 -2.8 0 Calma 8 Sudeste 0 -- -- 88
2020-01-12 22:00:00 -1.3 0 Calma 4 Sudeste 0 -- -- 83
2020-01-12 21:00:00 0.1 2 Noroeste 5 Oeste 0 -- -- 79
2020-01-12 20:00:00 1.7 3 Noroeste 11 Norte 0 -- -- 76
2020-01-12 19:00:00 2.7 4 Noroeste 10 Noroeste 0 -- -- 71
2020-01-12 18:00:00 4.5 9 Noroeste 15 Norte 0 -- -- 66
2020-01-12 17:00:00 7.2 12 Noroeste 18 Norte 0 -- -- 61
2020-01-12 16:00:00 7.8 13 Norte 19 Norte 0 -- -- 61
2020-01-12 15:00:00 8 13 Norte 25 Norte 0 -- -- 58
2020-01-12 14:00:00 6.7 14 Norte 19 Norte 0 -- -- 62
2020-01-12 13:00:00 3.2 6 Norte 10 Norte 0 -- -- 93
2020-01-12 12:00:00 -1.5 0 Calma 3 Oeste 0 -- -- 98
2020-01-12 11:00:00 -4.3 0 Calma -- -- 0 -- -- 97
2020-01-12 10:00:00 -6 0 Calma 5 Oeste 0 -- -- 96
2020-01-12 09:00:00 -7.2 4 Oeste 5 Oeste 0 -- -- 95
2020-01-12 08:00:00 -6.8 2 Oeste 5 Noroeste 0 -- -- 95
2020-01-12 07:00:00 -7.6 0 Calma 3 Noroeste 0 -- -- 91
2020-01-12 06:00:00 -6.9 0 Calma 5 Sudeste 0 -- -- 90
2020-01-12 05:00:00 -8 0 Calma 3 Noroeste 0 -- -- 88
2020-01-12 04:00:00 -7.2 0 Calma 2 Oeste 0 -- -- 89
2020-01-12 03:00:00 -6.8 0 Calma 2 Sudeste 0 -- -- 87
2020-01-12 02:00:00 -5.9 0 Calma 4 Sudeste 0 -- -- 87
2020-01-12 01:00:00 -4.9 2 Sudeste 3 Sudeste 0 -- -- 86
2020-01-12 00:00:00 -4.2 3 Sudeste 4 Sudeste 0 -- -- 85
2020-01-11 23:00:00 -3.2 4 Sudeste 5 Sudeste 0 -- -- 84
2020-01-11 22:00:00 -2.6 0 Calma -- -- 0 -- -- 83
2020-01-11 21:00:00 -1.3 2 Oeste 4 Oeste 0 -- -- 80
2020-01-11 20:00:00 0.2 3 Oeste 12 Noroeste 0 -- -- 82
2020-01-11 19:00:00 1.8 9 Oeste 13 Noroeste 0 -- -- 74
2020-01-11 18:00:00 4.7 6 Norte 13 Noroeste 0 -- -- 62
2020-01-11 17:00:00 7.7 9 Noroeste 18 Norte 0 -- -- 45
2020-01-11 16:00:00 7.7 13 Norte 18 Norte 0 -- -- 44
2020-01-11 15:00:00 7.6 11 Norte 19 Nordeste 0 -- -- 56
2020-01-11 14:00:00 7.2 3 Norte 10 Este 0 -- -- 59
2020-01-11 13:00:00 6 2 Nordeste 5 Nordeste 0 -- -- 73
2020-01-11 12:00:00 2.9 2 Este 4 Nordeste 0 -- -- 94
2020-01-11 11:00:00 -0.9 0 Calma 3 Sudeste 0 -- -- 99
2020-01-11 10:00:00 -5 0 Calma 2 Sudeste 0 -- -- 97
2020-01-11 09:00:00 -5.5 0 Calma 4 Nordeste 0 -- -- 96
2020-01-11 08:00:00 -4.7 3 Este 6 Nordeste 0 -- -- 95
2020-01-11 07:00:00 -3.5 2 Norte 5 Norte 0 -- -- 91
2020-01-11 06:00:00 -2.7 3 Nordeste 5 Norte 0 -- -- 94
2020-01-11 05:00:00 -3.6 0 Calma 5 Sudeste 0 -- -- 95
2020-01-11 04:00:00 -4.1 2 Sudeste 6 Sudeste 0 -- -- 94
2020-01-11 03:00:00 -3.4 0 Calma 4 Este 0 -- -- 92
2020-01-11 02:00:00 -3 0 Calma 7 Sudeste 0 -- -- 90
2020-01-11 01:00:00 -2.1 3 Sudeste 6 Este 0 -- -- 89
2020-01-11 00:00:00 -1 2 Oeste 8 Oeste 0 -- -- 87
2020-01-10 23:00:00 0.3 0 Calma 12 Oeste 0 -- -- 84
2020-01-10 22:00:00 0.6 0 Calma 19 Noroeste 0 -- -- 83
2020-01-10 21:00:00 0.6 9 Noroeste 13 Noroeste 0 -- -- 81
2020-01-10 20:00:00 1.7 9 Norte 16 Nordeste 0 -- -- 75
2020-01-10 19:00:00 3.4 15 Norte 20 Norte 0 -- -- 70
2020-01-10 18:00:00 4.9 7 Nordeste 24 Norte 0 -- -- 61
2020-01-10 17:00:00 6.4 19 Nordeste 28 Norte 0 -- -- 57
2020-01-10 16:00:00 7.2 22 Norte 34 Nordeste 0 -- -- 55
2020-01-10 15:00:00 7.5 21 Norte 33 Nordeste 0 -- -- 55
2020-01-10 14:00:00 6.9 19 Norte 32 Norte 0 -- -- 56
2020-01-10 13:00:00 5.7 15 Norte 27 Noroeste 0 -- -- 64
2020-01-10 12:00:00 4.6 13 Norte 26 Norte 0 -- -- 69
2020-01-10 11:00:00 2.6 12 Norte 23 Noroeste 0 -- -- 87
2020-01-10 10:00:00 -0.1 13 Noroeste 20 Noroeste 0 -- -- 94
2020-01-10 09:00:00 0.1 8 Norte 30 Noroeste 0 -- -- 93
2020-01-10 08:00:00 -0.2 7 Noroeste 18 Norte 0 -- -- 94
2020-01-10 07:00:00 0.1 4 Norte 14 Noroeste 0 -- -- 91
2020-01-10 06:00:00 1 4 Noroeste 17 Oeste 0 -- -- 89
2020-01-10 05:00:00 0.9 6 Noroeste 10 Noroeste 0 -- -- 90
2020-01-10 04:00:00 1.8 7 Noroeste 21 Noroeste 0 -- -- 86
2020-01-10 03:00:00 3.1 7 Noroeste 30 Noroeste 0 -- -- 84
2020-01-10 02:00:00 4.4 18 Noroeste 39 Noroeste 0 -- -- 84
2020-01-10 01:00:00 6.1 20 Noroeste 40 Noroeste 0 -- -- 87
2020-01-10 00:00:00 6.8 14 Noroeste 31 Noroeste 0 -- -- 87
2020-01-09 23:00:00 7.1 23 Noroeste 42 Oeste 0 -- -- 85
2020-01-09 22:00:00 8 25 Oeste 39 Oeste 0 -- -- 85
2020-01-09 21:00:00 8.5 18 Oeste 32 Oeste 0 -- -- 80
2020-01-09 20:00:00 8.3 20 Oeste 31 Oeste 0 -- -- 87
2020-01-09 19:00:00 8.2 10 Noroeste 28 Sudoeste 0 -- -- 71
2020-01-09 18:00:00 8.9 23 Sudoeste 27 Sudoeste 0 -- -- 67
2020-01-09 17:00:00 10.8 15 Noroeste 39 Oeste 0 -- -- 70
2020-01-09 16:00:00 12.2 23 Noroeste 42 Oeste 0 -- -- 63
2020-01-09 15:00:00 11.6 34 Noroeste 47 Noroeste 0 -- -- 64
2020-01-09 14:00:00 11.1 13 Noroeste 21 Norte 0 -- -- 66
2020-01-09 13:00:00 10.9 12 Norte 18 Norte 0 -- -- 59
2020-01-09 12:00:00 10.8 3 Sur 9 Oeste 0 -- -- 57
2020-01-09 11:00:00 7.8 3 Sudoeste 14 Sudoeste 0 -- -- 68
2020-01-09 10:00:00 5.1 7 Sur 14 Sur 0 -- -- 78
2020-01-09 09:00:00 3.6 4 Sudoeste 15 Sudoeste 0 -- -- 77
2020-01-09 08:00:00 2.7 3 Sudoeste 12 Este 0 -- -- 82
2020-01-09 07:00:00 2.7 4 Sudeste 13 Sur 0 -- -- 82
2020-01-09 06:00:00 2.2 5 Este 13 Este 0 -- -- 84
2020-01-09 05:00:00 2.4 9 Este 14 Este 0 -- -- 81
2020-01-09 04:00:00 2.5 9 Sudeste 11 Sudeste 0 -- -- 79
2020-01-09 03:00:00 3.8 6 Sudeste 13 Este 0 -- -- 74
2020-01-09 02:00:00 3.8 7 Este 12 Este 0 -- -- 77
2020-01-09 01:00:00 3.6 4 Este 13 Sur 0 -- -- 83
2020-01-09 00:00:00 2.1 5 Este 10 Este 0 -- -- 89
2020-01-08 23:00:00 2.8 7 Este 8 Este 0 -- -- 87
2020-01-08 22:00:00 3.2 9 Sudeste 11 Sudeste 0 -- -- 85
2020-01-08 21:00:00 4 6 Sudeste 13 Sudeste 0 -- -- 81
2020-01-08 20:00:00 5 10 Sudeste 12 Sudeste 0 -- -- 75
2020-01-08 19:00:00 6.5 10 Sudeste 13 Sudeste 0 -- -- 72
2020-01-08 18:00:00 9.5 6 Sudeste 12 Sudeste 0 -- -- 63
2020-01-08 17:00:00 11.8 5 Sudeste 18 Este 0 -- -- 60
2020-01-08 16:00:00 12.5 10 Este 13 Nordeste 0 -- -- 58
2020-01-08 15:00:00 12.4 8 Nordeste 14 Nordeste 0 -- -- 54
2020-01-08 14:00:00 11.2 2 Norte 12 Norte 0 -- -- 50
2020-01-08 13:00:00 8.5 7 Nordeste 15 Nordeste 0 -- -- 47
2020-01-08 12:00:00 6.4 4 Norte 9 Nordeste 0 -- -- 55
2020-01-08 11:00:00 3.6 0 Calma 8 Sudeste 0 -- -- 72
2020-01-08 10:00:00 -0.5 0 Calma 5 Oeste 0 -- -- 85
2020-01-08 09:00:00 -1.7 0 Calma 8 Oeste 0 -- -- 88
2020-01-08 08:00:00 -2.6 0 Calma 7 Oeste 0 -- -- 85
2020-01-08 07:00:00 -3.1 4 Oeste 6 Oeste 0 -- -- 85
2020-01-08 06:00:00 -2.3 4 Oeste 6 Oeste 0 -- -- 83
2020-01-08 05:00:00 -1.8 0 Calma 5 Oeste 0 -- -- 82
2020-01-08 04:00:00 -0.7 0 Calma 5 Nordeste 0 -- -- 79
2020-01-08 03:00:00 -0.1 2 Este 4 Este 0 -- -- 77
2020-01-08 02:00:00 0.9 0 Calma 5 Noroeste 0 -- -- 70
2020-01-08 01:00:00 2.5 4 Norte 10 Noroeste 0 -- -- 63
2020-01-08 00:00:00 3.5 3 Noroeste 9 Norte 0 -- -- 62
2020-01-07 23:00:00 3.8 0 Calma 9 Noroeste 0 -- -- 50
2020-01-07 22:00:00 2.8 8 Oeste 14 Noroeste 0 -- -- 56
2020-01-07 21:00:00 2.7 6 Oeste 10 Oeste 0 -- -- 65
2020-01-07 20:00:00 4.4 6 Oeste 16 Oeste 0 -- -- 58
2020-01-07 19:00:00 5.3 11 Oeste 16 Oeste 0 -- -- 62
2020-01-07 18:00:00 7.9 3 Norte 13 Noroeste 0 -- -- 55
2020-01-07 17:00:00 10.1 8 Norte 19 Nordeste 0 -- -- 50
2020-01-07 16:00:00 12.6 9 Norte 14 Norte 0 -- -- 45
2020-01-07 15:00:00 12.5 3 Noroeste 9 Noroeste 0 -- -- 44
2020-01-07 14:00:00 8.9 5 Norte 12 Nordeste 0 -- -- 58
2020-01-07 13:00:00 6.4 2 Noroeste 11 Nordeste 0 -- -- 63
2020-01-07 12:00:00 4.8 4 Nordeste 9 Nordeste 0 -- -- 71
2020-01-07 11:00:00 1.8 0 Calma 4 Norte 0 -- -- 83
2020-01-07 10:00:00 -2.1 0 Calma 2 Sudeste 0 -- -- 91
2020-01-07 09:00:00 -4.9 0 Calma 3 Oeste 0 -- -- 91
2020-01-07 08:00:00 -4.8 0 Calma 2 Este 0 -- -- 91
2020-01-07 07:00:00 -4.3 0 Calma 2 Sudeste 0 -- -- 90
2020-01-07 06:00:00 -4.4 2 Oeste 6 Sudeste 0 -- -- 90
2020-01-07 05:00:00 -3.6 0 Calma 6 Oeste 0 -- -- 91
2020-01-07 04:00:00 -3.7 2 Noroeste 6 Oeste 0 -- -- 89
2020-01-07 03:00:00 -3.1 0 Calma 8 Oeste 0 -- -- 88
2020-01-07 02:00:00 -2.6 3 Oeste 4 Oeste 0 -- -- 90
2020-01-07 01:00:00 -1.7 3 Oeste 6 Oeste 0 -- -- 88
2020-01-07 00:00:00 -1.1 4 Oeste 6 Oeste 0 -- -- 87
2020-01-06 23:00:00 0 0 Calma 8 Oeste 0 -- -- 85
2020-01-06 22:00:00 0.7 3 Oeste 5 Oeste 0 -- -- 83
2020-01-06 21:00:00 2.4 0 Calma 6 Oeste 0 -- -- 75
2020-01-06 20:00:00 4.4 0 Calma 6 Oeste 0 -- -- 71
2020-01-06 19:00:00 5.2 3 Oeste 6 Oeste 0 -- -- 67
2020-01-06 18:00:00 8.4 5 Noroeste 8 Norte 0 -- -- 55
2020-01-06 17:00:00 10.5 6 Norte 15 Norte 0 -- -- 50
2020-01-06 16:00:00 10.5 13 Nordeste 17 Nordeste 0 -- -- 47
2020-01-06 15:00:00 10.9 10 Este 14 Este 0 -- -- 45
2020-01-06 14:00:00 10.7 7 Nordeste 12 Nordeste 0 -- -- 48
2020-01-06 13:00:00 10 5 Nordeste 11 Norte 0 -- -- 51
2020-01-06 12:00:00 7.8 0 Calma 7 Sudeste 0 -- -- 68
2020-01-06 11:00:00 3.6 0 Calma 9 Sudeste 0 -- -- 85
2020-01-06 10:00:00 -0.3 2 Sudeste 2 Este 0 -- -- 91